Time;durP1;ratioP1;P1;durP2;ratioP2;P2;SDS_P1;SDS_P2;PMS_P1;PMS_P2;Temp;Humidity;BMP_temperature;BMP_pressure;BME280_temperature;BME280_humidity;BME280_pressure;Samples;Min_cycle;Max_cycle;Signal;HPM_P1;HPM_P2
2022/03/29 00:00:13;;;;;;;17.67;15.75;;;14.70;65.60;;;;;;5071236;28;20073;-83
2022/03/29 00:02:39;;;;;;;17.25;15.20;;;14.60;65.50;;;;;;5071940;28;20031;-76
2022/03/29 00:05:05;;;;;;;18.70;15.82;;;14.60;65.50;;;;;;5071936;28;20077;-75
2022/03/29 00:07:31;;;;;;;17.42;15.52;;;14.60;65.70;;;;;;5089831;28;20089;-76
2022/03/29 00:09:57;;;;;;;18.17;15.88;;;14.60;65.80;;;;;;5089965;28;20024;-78
2022/03/29 00:12:23;;;;;;;18.40;16.10;;;14.60;66.00;;;;;;5071462;28;20028;-76
2022/03/29 00:14:48;;;;;;;19.15;16.77;;;14.60;66.00;;;;;;5072126;28;20024;-75
2022/03/29 00:17:14;;;;;;;19.27;16.25;;;14.60;66.50;;;;;;5071443;28;20050;-76
2022/03/29 00:19:39;;;;;;;19.48;16.77;;;14.60;66.00;;;;;;5090125;28;20035;-76
2022/03/29 00:22:04;;;;;;;20.08;16.50;;;14.60;66.00;;;;;;5089570;28;20111;-77
2022/03/29 00:24:30;;;;;;;20.88;16.70;;;14.60;66.10;;;;;;5089735;28;20028;-75
2022/03/29 00:26:55;;;;;;;19.08;16.48;;;14.60;66.10;;;;;;5089160;28;20376;-80
2022/03/29 00:29:21;;;;;;;19.88;16.45;;;14.60;66.20;;;;;;5071825;28;20028;-74
2022/03/29 00:31:47;;;;;;;19.88;16.95;;;14.60;66.40;;;;;;5089620;28;20567;-75
2022/03/29 00:34:12;;;;;;;18.80;15.93;;;14.60;66.40;;;;;;5089478;28;20361;-76
2022/03/29 00:36:38;;;;;;;19.50;15.93;;;14.60;66.50;;;;;;5089401;28;20114;-77
2022/03/29 00:39:03;;;;;;;20.10;16.67;;;14.60;66.50;;;;;;5071356;28;20710;-76
2022/03/29 00:41:29;;;;;;;21.23;17.00;;;14.60;66.50;;;;;;5089774;28;20119;-75
2022/03/29 00:43:54;;;;;;;19.67;17.40;;;14.60;66.50;;;;;;5071248;28;20053;-76
2022/03/29 00:46:20;;;;;;;19.05;16.58;;;14.60;66.50;;;;;;5071136;28;20078;-74
2022/03/29 00:48:46;;;;;;;20.40;17.65;;;14.60;66.60;;;;;;5088738;28;20875;-76
2022/03/29 00:51:12;;;;;;;20.67;17.60;;;14.60;66.50;;;;;;5071308;28;20036;-75
2022/03/29 00:53:38;;;;;;;19.95;17.13;;;14.60;66.70;;;;;;5070957;28;20059;-77
2022/03/29 00:56:04;;;;;;;19.45;17.35;;;14.60;66.60;;;;;;5089237;28;20502;-76
2022/03/29 00:58:30;;;;;;;20.17;17.10;;;14.60;66.70;;;;;;5070702;28;20076;-77
2022/03/29 01:01:01;;;;;;;19.70;17.58;;;14.60;66.60;;;;;;5070955;28;20021;-76
2022/03/29 01:03:27;;;;;;;22.02;18.17;;;14.60;66.60;;;;;;5071186;28;20567;-75
2022/03/29 01:05:52;;;;;;;20.67;17.23;;;14.50;66.70;;;;;;5088894;28;20040;-77
2022/03/29 01:08:18;;;;;;;20.13;17.77;;;14.60;66.70;;;;;;5070593;28;20059;-76
2022/03/29 01:10:45;;;;;;;21.50;17.40;;;14.60;66.70;;;;;;5070581;28;20134;-78
2022/03/29 01:13:12;;;;;;;20.40;17.70;;;14.60;66.80;;;;;;5071087;28;20024;-75
2022/03/29 01:15:38;;;;;;;19.60;17.25;;;14.50;66.70;;;;;;5088719;28;20028;-74
2022/03/29 01:18:05;;;;;;;20.15;16.40;;;14.50;66.70;;;;;;5070510;28;20024;-76
2022/03/29 01:20:32;;;;;;;20.00;16.92;;;14.50;66.80;;;;;;5088729;28;20016;-76
2022/03/29 01:23:00;;;;;;;20.08;17.48;;;14.50;66.90;;;;;;5088826;28;20020;-75
2022/03/29 01:25:34;;;;;;;19.60;16.80;;;14.60;67.10;;;;;;5070852;28;20027;-75
2022/03/29 01:28:02;;;;;;;19.70;16.98;;;14.50;66.70;;;;;;5088020;28;20035;-77
2022/03/29 01:30:27;;;;;;;21.10;17.17;;;14.60;66.90;;;;;;5070484;28;20557;-76
2022/03/29 01:32:53;;;;;;;20.63;17.25;;;14.50;66.70;;;;;;5070491;28;20162;-78
2022/03/29 01:35:26;;;;;;;19.88;17.17;;;14.50;66.90;;;;;;5088784;28;20503;-76
2022/03/29 01:37:53;;;;;;;19.92;16.60;;;14.50;66.80;;;;;;5088355;28;20158;-75
2022/03/29 01:40:23;;;;;;;18.42;15.82;;;14.60;67.00;;;;;;5070462;28;20031;-77
2022/03/29 01:42:51;;;;;;;19.20;16.67;;;14.50;67.00;;;;;;5088478;28;20398;-77
2022/03/29 01:45:18;;;;;;;19.83;17.13;;;14.60;67.00;;;;;;5088777;28;20538;-78
2022/03/29 01:47:43;;;;;;;19.98;16.80;;;14.50;67.00;;;;;;5069915;28;20032;-77
2022/03/29 01:50:12;;;;;;;21.45;17.70;;;14.50;67.10;;;;;;5070282;28;20090;-79
2022/03/29 01:52:47;;;;;;;18.73;16.05;;;14.50;66.80;;;;;;5070640;28;20035;-77
2022/03/29 01:55:16;;;;;;;19.45;16.55;;;14.50;66.80;;;;;;5070459;28;20047;-76
2022/03/29 01:57:41;;;;;;;20.33;17.10;;;14.50;67.00;;;;;;5070201;28;20036;-77
2022/03/29 02:02:54;;;;;;;19.40;15.85;;;14.50;67.10;;;;;;5068531;28;20043;-76
2022/03/29 02:05:20;;;;;;;18.83;16.40;;;14.50;67.20;;;;;;5067103;28;20050;-74
2022/03/29 02:07:46;;;;;;;19.85;16.73;;;14.50;67.00;;;;;;5068085;28;20084;-74
2022/03/29 02:10:16;;;;;;;21.92;17.17;;;14.50;67.00;;;;;;5069417;28;20116;-75
2022/03/29 02:12:41;;;;;;;19.75;16.83;;;14.50;67.00;;;;;;5070487;28;20030;-76
2022/03/29 02:15:07;;;;;;;19.27;16.60;;;14.50;66.80;;;;;;5088205;28;20032;-76
2022/03/29 02:17:33;;;;;;;20.42;16.92;;;14.50;67.00;;;;;;5069894;28;20028;-76
2022/03/29 02:19:58;;;;;;;20.15;16.70;;;14.50;67.00;;;;;;5088287;28;20031;-78
2022/03/29 02:22:24;;;;;;;20.23;17.92;;;14.50;67.10;;;;;;5070025;28;20012;-75
2022/03/29 02:24:49;;;;;;;21.20;18.40;;;14.50;66.90;;;;;;5091909;28;20042;-81
2022/03/29 02:27:15;;;;;;;19.63;16.80;;;14.50;66.80;;;;;;5073254;28;20419;-76
2022/03/29 02:29:40;;;;;;;18.83;16.80;;;14.50;66.90;;;;;;5073743;28;20483;-78
2022/03/29 02:32:06;;;;;;;19.67;16.67;;;14.50;67.30;;;;;;5073661;28;20064;-76
2022/03/29 02:34:32;;;;;;;20.45;17.85;;;14.50;66.90;;;;;;5091915;28;20024;-76
2022/03/29 02:36:58;;;;;;;21.95;17.65;;;14.50;66.90;;;;;;5073118;28;20028;-74
2022/03/29 02:39:23;;;;;;;19.80;16.90;;;14.50;66.80;;;;;;5089063;28;20031;-75
2022/03/29 02:41:49;;;;;;;20.08;17.52;;;14.50;66.90;;;;;;5091233;28;20036;-75
2022/03/29 02:44:14;;;;;;;21.33;17.48;;;14.50;67.20;;;;;;5073475;28;20436;-75
2022/03/29 02:46:40;;;;;;;19.40;16.73;;;14.40;66.90;;;;;;5073069;28;20139;-76
2022/03/29 02:49:06;;;;;;;20.65;17.45;;;14.50;67.30;;;;;;5073326;28;20502;-75
2022/03/29 02:51:31;;;;;;;19.58;17.00;;;14.50;67.00;;;;;;5073527;28;20039;-74
2022/03/29 02:53:57;;;;;;;19.70;16.88;;;14.50;67.40;;;;;;5073802;28;20077;-75
2022/03/29 02:56:22;;;;;;;20.05;17.08;;;14.50;67.30;;;;;;5073310;28;20077;-75
2022/03/29 02:58:48;;;;;;;19.67;16.77;;;14.40;67.00;;;;;;5091500;28;20823;-75
2022/03/29 03:01:14;;;;;;;19.42;16.92;;;14.50;66.90;;;;;;5073579;28;20028;-77
2022/03/29 03:03:39;;;;;;;18.48;16.48;;;14.40;67.00;;;;;;5073273;28;20019;-74
2022/03/29 03:06:05;;;;;;;20.83;16.83;;;14.40;67.40;;;;;;5073304;28;20016;-75
2022/03/29 03:08:30;;;;;;;19.88;17.20;;;14.40;66.80;;;;;;5073037;28;20894;-75
2022/03/29 03:10:56;;;;;;;22.02;17.73;;;14.50;67.00;;;;;;5091541;28;20114;-75
2022/03/29 03:13:22;;;;;;;20.92;17.10;;;14.50;66.80;;;;;;5073229;28;20470;-77
2022/03/29 03:15:47;;;;;;;19.92;16.88;;;14.40;67.10;;;;;;5091309;28;20066;-75
2022/03/29 03:18:13;;;;;;;20.02;16.42;;;14.40;66.70;;;;;;5072737;28;20024;-80
2022/03/29 03:20:39;;;;;;;21.00;16.98;;;14.40;66.70;;;;;;5091136;28;20428;-75
2022/03/29 03:23:04;;;;;;;20.50;17.40;;;14.40;66.70;;;;;;5072970;28;20440;-76
2022/03/29 03:25:30;;;;;;;19.30;16.25;;;14.40;66.80;;;;;;5091076;28;20031;-75
2022/03/29 03:27:55;;;;;;;21.45;17.83;;;14.40;67.10;;;;;;5072223;28;20115;-76
2022/03/29 03:30:21;;;;;;;22.05;18.13;;;14.40;66.80;;;;;;5091068;28;20118;-75
2022/03/29 03:32:47;;;;;;;21.65;18.13;;;14.40;66.90;;;;;;5073022;28;20065;-77
2022/03/29 03:35:13;;;;;;;20.25;17.50;;;14.40;66.70;;;;;;5090539;28;20047;-75
2022/03/29 03:37:39;;;;;;;20.58;17.48;;;14.40;66.70;;;;;;5090686;28;20016;-75
2022/03/29 03:40:07;;;;;;;21.13;17.88;;;14.40;66.30;;;;;;5090750;28;20803;-76
2022/03/29 03:42:33;;;;;;;22.17;18.98;;;14.40;66.40;;;;;;5072746;28;20515;-76
2022/03/29 03:44:59;;;;;;;21.27;18.08;;;14.40;66.50;;;;;;5072696;28;20020;-76
2022/03/29 03:47:28;;;;;;;21.85;18.38;;;14.40;66.30;;;;;;5072405;28;20173;-76
2022/03/29 03:49:53;;;;;;;20.77;17.73;;;14.40;66.30;;;;;;5072540;28;20067;-77
2022/03/29 03:52:19;;;;;;;23.02;17.67;;;14.40;66.40;;;;;;5072099;28;20063;-76
2022/03/29 03:54:45;;;;;;;22.45;17.35;;;14.40;66.50;;;;;;5072708;28;20383;-75
2022/03/29 03:57:10;;;;;;;21.63;17.40;;;14.40;66.60;;;;;;5071998;28;20627;-80
2022/03/29 03:59:36;;;;;;;20.45;17.33;;;14.40;66.60;;;;;;5090556;28;20020;-77
2022/03/29 04:02:02;;;;;;;20.02;17.33;;;14.40;66.60;;;;;;5072507;28;20016;-77
2022/03/29 04:04:28;;;;;;;20.65;17.33;;;14.40;66.50;;;;;;5072470;28;20080;-75
2022/03/29 04:06:54;;;;;;;20.55;16.67;;;14.40;66.60;;;;;;5071967;28;20114;-77
2022/03/29 04:09:19;;;;;;;20.58;16.92;;;14.40;66.60;;;;;;5071864;28;20038;-76
2022/03/29 04:11:45;;;;;;;20.40;17.15;;;14.40;66.30;;;;;;5072126;28;20035;-74
2022/03/29 04:14:10;;;;;;;21.48;17.25;;;14.40;66.60;;;;;;5071660;28;20098;-75
2022/03/29 04:16:36;;;;;;;21.58;17.02;;;14.40;66.40;;;;;;5089908;28;20020;-76
2022/03/29 04:19:02;;;;;;;21.27;18.17;;;14.40;66.20;;;;;;5089948;28;20024;-76
2022/03/29 04:21:27;;;;;;;21.50;18.08;;;14.30;66.20;;;;;;5072025;28;20024;-77
2022/03/29 04:23:53;;;;;;;23.42;17.48;;;14.30;66.30;;;;;;5089991;28;20020;-76
2022/03/29 04:26:19;;;;;;;21.75;17.77;;;14.40;66.40;;;;;;5071287;28;20024;-75
2022/03/29 04:28:44;;;;;;;21.27;17.70;;;14.30;66.30;;;;;;5089596;28;20016;-76
2022/03/29 04:31:10;;;;;;;23.50;17.65;;;14.40;66.30;;;;;;5071750;28;20022;-75
2022/03/29 04:33:36;;;;;;;22.95;18.00;;;14.30;66.00;;;;;;5071758;28;20024;-76
2022/03/29 04:36:02;;;;;;;20.83;17.05;;;14.30;65.90;;;;;;5071682;28;20699;-75
2022/03/29 04:38:27;;;;;;;21.95;17.08;;;14.30;65.90;;;;;;5089433;28;20020;-75
2022/03/29 04:40:53;;;;;;;21.50;18.17;;;14.30;66.20;;;;;;5075637;28;20028;-76
2022/03/29 04:43:19;;;;;;;21.10;16.90;;;14.30;66.00;;;;;;5088953;28;20109;-74
2022/03/29 04:45:45;;;;;;;20.98;17.55;;;14.30;65.90;;;;;;5089031;28;20028;-75
2022/03/29 04:48:11;;;;;;;21.05;17.52;;;14.30;66.10;;;;;;5089249;28;20040;-77
2022/03/29 04:50:38;;;;;;;22.35;18.02;;;14.30;65.90;;;;;;5070918;28;20064;-75
2022/03/29 04:53:03;;;;;;;20.73;17.08;;;14.30;66.10;;;;;;5071079;28;20126;-77
2022/03/29 04:55:29;;;;;;;21.27;17.38;;;14.30;66.50;;;;;;5090238;28;20107;-76
2022/03/29 04:58:00;;;;;;;20.48;16.95;;;14.30;65.80;;;;;;5088887;28;20402;-76
2022/03/29 05:00:27;;;;;;;21.80;17.45;;;14.30;65.70;;;;;;5072132;28;20027;-78
2022/03/29 05:02:52;;;;;;;19.92;16.40;;;14.30;66.10;;;;;;5090023;28;20028;-75
2022/03/29 05:05:18;;;;;;;21.60;17.17;;;14.30;66.10;;;;;;5090580;28;20016;-77
2022/03/29 05:07:44;;;;;;;22.00;17.35;;;14.30;66.20;;;;;;5090584;28;20427;-75
2022/03/29 05:10:11;;;;;;;22.02;17.10;;;14.30;65.50;;;;;;5072876;28;20030;-77
2022/03/29 05:12:51;;;;;;;21.75;17.33;;;14.30;65.50;;;;;;5072919;28;20115;-75
2022/03/29 05:15:18;;;;;;;20.50;16.60;;;14.30;65.50;;;;;;5091083;28;20016;-75
2022/03/29 05:17:45;;;;;;;20.38;16.70;;;14.30;65.50;;;;;;5081532;28;20024;-79
2022/03/29 05:20:11;;;;;;;31.92;17.33;;;14.30;65.20;;;;;;5052481;28;20024;-76
2022/03/29 05:22:44;;;;;;;33.80;17.63;;;14.30;65.40;;;;;;5076711;28;20044;-77
2022/03/29 05:25:11;;;;;;;29.52;16.85;;;14.20;65.30;;;;;;5090640;28;20051;-76
2022/03/29 05:27:36;;;;;;;26.73;17.70;;;14.20;65.30;;;;;;5090357;28;20024;-77
2022/03/29 05:30:02;;;;;;;27.38;17.98;;;14.20;65.30;;;;;;5090736;28;20026;-75
2022/03/29 05:32:28;;;;;;;23.60;17.40;;;14.30;65.60;;;;;;5090944;28;20062;-76
2022/03/29 05:34:53;;;;;;;27.02;17.83;;;14.30;65.40;;;;;;5088624;28;20051;-75
2022/03/29 05:37:19;;;;;;;24.73;17.70;;;14.30;65.20;;;;;;5070466;28;20490;-76
2022/03/29 05:39:44;;;;;;;24.15;17.52;;;14.20;64.90;;;;;;5070402;28;20043;-75
2022/03/29 05:42:10;;;;;;;25.02;17.55;;;14.20;64.90;;;;;;5088866;28;20044;-76
2022/03/29 05:44:37;;;;;;;27.70;17.38;;;14.20;65.00;;;;;;5070390;28;20024;-74
2022/03/29 05:49:48;;;;;;;24.30;17.75;;;14.20;64.90;;;;;;5085764;28;20562;-75
2022/03/29 05:52:13;;;;;;;23.17;17.45;;;14.30;65.20;;;;;;5065817;28;20028;-77
2022/03/29 05:54:41;;;;;;;24.17;17.98;;;14.20;65.20;;;;;;5066958;28;20068;-74
2022/03/29 05:57:07;;;;;;;24.25;17.55;;;14.20;64.90;;;;;;5066850;28;20058;-74
2022/03/29 05:59:34;;;;;;;22.67;17.52;;;14.20;64.60;;;;;;5069801;28;20024;-75
2022/03/29 06:02:04;;;;;;;26.75;19.00;;;14.20;64.70;;;;;;5071022;28;20354;-77
2022/03/29 06:04:31;;;;;;;22.85;17.30;;;14.20;64.60;;;;;;5070982;28;20349;-78
2022/03/29 06:06:56;;;;;;;25.08;17.50;;;14.20;64.40;;;;;;5071317;28;20034;-78
2022/03/29 06:09:22;;;;;;;24.38;18.13;;;14.20;64.50;;;;;;5071357;28;20415;-79
2022/03/29 06:11:48;;;;;;;23.58;17.75;;;14.20;64.70;;;;;;5071358;28;20028;-75
2022/03/29 06:14:14;;;;;;;25.15;18.15;;;14.20;64.80;;;;;;5071167;28;20039;-76
2022/03/29 06:16:41;;;;;;;24.08;18.42;;;14.20;64.80;;;;;;5070836;28;20028;-76
2022/03/29 06:19:08;;;;;;;22.92;18.15;;;14.20;64.90;;;;;;5071154;28;20352;-77
2022/03/29 06:21:36;;;;;;;22.75;17.88;;;14.20;65.10;;;;;;5071091;28;20016;-75
2022/03/29 06:24:02;;;;;;;23.90;18.05;;;14.20;65.10;;;;;;5070410;28;20027;-76
2022/03/29 06:26:28;;;;;;;21.23;16.73;;;14.20;65.30;;;;;;5070827;28;20024;-76
2022/03/29 06:28:53;;;;;;;23.38;17.48;;;14.20;65.30;;;;;;5070920;28;20509;-77
2022/03/29 06:31:20;;;;;;;23.00;17.58;;;14.20;65.20;;;;;;5070921;28;20039;-77
2022/03/29 06:33:46;;;;;;;25.42;18.08;;;14.20;65.10;;;;;;5071017;28;20027;-75
2022/03/29 06:36:11;;;;;;;22.63;16.83;;;14.20;65.10;;;;;;5070798;28;20036;-74
2022/03/29 06:38:37;;;;;;;23.00;17.33;;;14.20;65.20;;;;;;5070546;28;20027;-74
2022/03/29 06:41:03;;;;;;;23.55;17.52;;;14.20;65.30;;;;;;5070620;28;20027;-77
2022/03/29 06:43:29;;;;;;;21.67;17.10;;;14.20;65.20;;;;;;5070651;28;20024;-75
2022/03/29 06:45:55;;;;;;;22.55;17.10;;;14.20;65.10;;;;;;5070888;28;20153;-78
2022/03/29 06:48:21;;;;;;;22.42;17.45;;;14.20;65.20;;;;;;5070060;28;20074;-75
2022/03/29 06:50:46;;;;;;;22.90;16.65;;;14.20;65.50;;;;;;5070728;28;20056;-78
2022/03/29 06:53:12;;;;;;;23.48;17.88;;;14.20;65.30;;;;;;5070274;28;20065;-74
2022/03/29 06:55:38;;;;;;;23.95;16.67;;;14.20;65.40;;;;;;5070713;28;20088;-75
2022/03/29 06:58:03;;;;;;;22.77;17.67;;;14.20;65.40;;;;;;5069901;28;20035;-79
2022/03/29 07:00:29;;;;;;;25.13;17.83;;;14.20;65.10;;;;;;5070376;28;20144;-77
2022/03/29 07:02:55;;;;;;;23.17;17.85;;;14.20;65.70;;;;;;5070439;28;20028;-77
2022/03/29 07:05:20;;;;;;;23.02;17.15;;;14.20;65.20;;;;;;5070263;28;20031;-74
2022/03/29 07:07:47;;;;;;;23.65;17.35;;;14.20;65.30;;;;;;5069977;28;20023;-80
2022/03/29 07:13:01;;;;;;;23.58;17.17;;;14.20;65.20;;;;;;5088861;28;20038;-75
2022/03/29 07:15:27;;;;;;;22.30;17.23;;;14.20;65.50;;;;;;5070314;28;20078;-75
2022/03/29 07:17:53;;;;;;;24.50;18.05;;;14.20;65.70;;;;;;5069620;28;20031;-75
2022/03/29 07:20:19;;;;;;;24.15;17.98;;;14.20;65.40;;;;;;5069802;28;20028;-75
2022/03/29 07:22:47;;;;;;;23.55;18.55;;;14.20;65.50;;;;;;5070232;28;20449;-75
2022/03/29 07:25:14;;;;;;;24.85;17.50;;;14.20;65.30;;;;;;5069355;28;20119;-75
2022/03/29 07:27:40;;;;;;;21.98;17.42;;;14.20;65.50;;;;;;5069706;28;20610;-75
2022/03/29 07:30:06;;;;;;;22.45;17.30;;;14.20;65.20;;;;;;5069839;28;20050;-75
2022/03/29 07:32:32;;;;;;;22.20;17.15;;;14.20;64.90;;;;;;5069861;28;20028;-74
2022/03/29 07:34:58;;;;;;;24.27;17.75;;;14.20;64.90;;;;;;5069674;28;20153;-74
2022/03/29 07:37:24;;;;;;;23.45;16.90;;;14.20;64.90;;;;;;5069422;28;20125;-75
2022/03/29 07:39:53;;;;;;;25.65;18.30;;;14.20;65.20;;;;;;5069539;28;20303;-75
2022/03/29 07:42:22;;;;;;;23.38;17.08;;;14.20;65.30;;;;;;5069534;28;20045;-77
2022/03/29 07:44:52;;;;;;;23.25;17.00;;;14.20;65.00;;;;;;5069770;28;20031;-75
2022/03/29 07:47:19;;;;;;;21.25;16.23;;;14.30;65.10;;;;;;5069229;28;20039;-75
2022/03/29 07:49:45;;;;;;;20.33;16.27;;;14.20;65.10;;;;;;5069744;28;20406;-76
2022/03/29 07:52:11;;;;;;;24.35;17.02;;;14.20;65.30;;;;;;5069485;28;20028;-75
2022/03/29 07:54:37;;;;;;;21.98;16.83;;;14.20;65.30;;;;;;5069290;28;20034;-75
2022/03/29 07:57:04;;;;;;;22.88;16.83;;;14.20;65.50;;;;;;5068995;28;20030;-76
2022/03/29 07:59:30;;;;;;;22.75;17.30;;;14.20;65.10;;;;;;5069344;28;20635;-79
2022/03/29 08:01:55;;;;;;;22.23;16.65;;;14.20;65.20;;;;;;5069386;28;20024;-79
2022/03/29 08:04:21;;;;;;;21.33;15.82;;;14.20;64.80;;;;;;5069144;28;20457;-78
2022/03/29 08:06:47;;;;;;;22.05;16.13;;;14.20;64.70;;;;;;5069280;28;20031;-75
2022/03/29 08:09:14;;;;;;;21.67;16.55;;;14.20;64.60;;;;;;5069315;28;20129;-76
2022/03/29 08:11:40;;;;;;;20.88;16.90;;;14.20;65.00;;;;;;5069195;28;20024;-79
2022/03/29 08:14:06;;;;;;;22.70;16.23;;;14.20;64.90;;;;;;5069172;28;20027;-76
2022/03/29 08:16:33;;;;;;;22.40;17.10;;;14.20;64.60;;;;;;5068579;28;20028;-80
2022/03/29 08:18:59;;;;;;;20.88;16.38;;;14.20;65.10;;;;;;5062902;28;20060;-75
2022/03/29 08:24:09;;;;;;;21.15;16.23;;;14.20;65.30;;;;;;5066932;28;20666;-78
2022/03/29 08:26:35;;;;;;;20.50;15.70;;;14.20;65.00;;;;;;5054738;28;20023;-76
2022/03/29 08:29:00;;;;;;;20.73;15.40;;;14.20;65.00;;;;;;5068883;28;20060;-76
2022/03/29 08:31:26;;;;;;;21.27;15.73;;;14.20;65.30;;;;;;5068799;28;20020;-75
2022/03/29 08:33:51;;;;;;;22.90;16.98;;;14.20;65.20;;;;;;5068530;28;20032;-77
2022/03/29 08:36:17;;;;;;;25.98;16.02;;;14.20;64.60;;;;;;5068422;28;20043;-76
2022/03/29 08:38:44;;;;;;;21.65;16.00;;;14.20;64.70;;;;;;5068095;28;20012;-75
2022/03/29 08:41:09;;;;;;;23.02;16.65;;;14.20;64.60;;;;;;5067985;28;20028;-77
2022/03/29 08:43:35;;;;;;;24.05;16.67;;;14.20;64.70;;;;;;5068143;28;20016;-78
2022/03/29 08:46:01;;;;;;;22.85;17.20;;;14.20;64.80;;;;;;5068049;28;20492;-76
2022/03/29 08:48:28;;;;;;;29.17;17.10;;;14.20;64.80;;;;;;5067704;28;20426;-77
2022/03/29 08:50:57;;;;;;;22.15;15.82;;;14.20;64.60;;;;;;5068392;28;20039;-79
2022/03/29 08:53:23;;;;;;;20.67;16.25;;;14.20;64.60;;;;;;5068320;28;20024;-77
2022/03/29 08:55:49;;;;;;;21.15;16.65;;;14.20;64.30;;;;;;5068068;28;20523;-76
2022/03/29 08:58:18;;;;;;;25.65;16.80;;;14.20;64.00;;;;;;5067534;28;20123;-75
2022/03/29 09:00:45;;;;;;;21.25;16.40;;;14.10;64.00;;;;;;5068273;28;20027;-76
2022/03/29 09:03:14;;;;;;;22.05;16.33;;;14.10;64.20;;;;;;5067757;28;20024;-79
2022/03/29 09:05:39;;;;;;;22.25;16.33;;;14.10;64.10;;;;;;5067914;28;20027;-78
2022/03/29 09:08:08;;;;;;;22.05;16.95;;;14.10;64.30;;;;;;5084597;28;20038;-78
2022/03/29 09:10:48;;;;;;;35.80;17.10;;;14.10;64.60;;;;;;5067151;28;20061;-76
2022/03/29 09:13:28;;;;;;;33.40;16.52;;;14.20;65.00;;;;;;5068056;28;20486;-79
2022/03/29 09:15:57;;;;;;;35.42;17.77;;;14.20;65.30;;;;;;5067797;28;20031;-75
2022/03/29 09:18:23;;;;;;;32.15;16.83;;;14.20;65.30;;;;;;5067360;28;20051;-79
2022/03/29 09:21:13;;;;;;;28.92;15.70;;;14.20;65.40;;;;;;5067919;28;20028;-76
2022/03/29 09:23:39;;;;;;;29.63;16.05;;;14.30;65.60;;;;;;5067394;28;20119;-78
2022/03/29 09:26:05;;;;;;;26.98;15.20;;;14.30;65.60;;;;;;5085890;28;20487;-78
2022/03/29 09:28:38;;;;;;;29.20;15.70;;;14.30;65.70;;;;;;5067529;28;20028;-75
2022/03/29 09:31:19;;;;;;;27.92;15.95;;;14.30;65.80;;;;;;5067698;28;20498;-78
2022/03/29 09:33:45;;;;;;;;;;;14.40;65.90;;;;;;5068170;28;20143;-78
2022/03/29 09:36:14;;;;;;;26.40;16.45;;;14.40;65.80;;;;;;5067568;28;20002;-75
2022/03/29 09:38:42;;;;;;;24.92;14.38;;;14.40;65.70;;;;;;5067156;28;20032;-75
2022/03/29 09:41:31;;;;;;;26.10;15.90;;;14.40;65.80;;;;;;5067693;28;20077;-75
2022/03/29 09:44:10;;;;;;;25.42;15.50;;;14.40;65.80;;;;;;5067719;28;20024;-76
2022/03/29 09:46:52;;;;;;;26.85;15.75;;;14.40;66.20;;;;;;5068295;28;20032;-79
2022/03/29 09:49:20;;;;;;;25.70;15.25;;;14.50;66.30;;;;;;5092042;28;20020;-80
2022/03/29 09:51:45;;;;;;;22.33;15.32;;;14.50;65.70;;;;;;5091918;28;20096;-78
2022/03/29 09:54:11;;;;;;;21.83;14.38;;;14.50;65.70;;;;;;5071493;28;20306;-76
2022/03/29 09:56:37;;;;;;;23.35;15.65;;;14.50;65.80;;;;;;5087655;28;20040;-75
2022/03/29 09:59:10;;;;;;;22.77;15.20;;;14.50;65.80;;;;;;5068686;28;20149;-76
2022/03/29 10:01:57;;;;;;;23.77;16.00;;;14.50;65.80;;;;;;5069503;28;20031;-76
2022/03/29 10:04:29;;;;;;;22.35;15.63;;;14.50;65.90;;;;;;5069164;28;20028;-75
2022/03/29 10:06:55;;;;;;;;;;;14.60;65.90;;;;;;5070134;28;20507;-76
2022/03/29 10:09:31;;;;;;;23.10;15.35;;;14.60;65.90;;;;;;5069555;28;19908;-79
2022/03/29 10:12:02;;;;;;;22.77;14.88;;;14.60;65.90;;;;;;5069503;28;20035;-78
2022/03/29 10:14:28;;;;;;;23.67;16.13;;;14.60;65.90;;;;;;5069531;28;20024;-75
2022/03/29 10:16:56;;;;;;;20.75;14.77;;;14.60;65.90;;;;;;5069250;28;20032;-75
2022/03/29 10:19:23;;;;;;;24.02;15.60;;;14.60;66.00;;;;;;5070603;28;20016;-75
2022/03/29 10:21:50;;;;;;;23.50;14.93;;;14.60;66.00;;;;;;5090064;28;20023;-75
2022/03/29 10:24:18;;;;;;;22.98;15.13;;;14.60;66.10;;;;;;5089633;28;20012;-75
2022/03/29 10:26:45;;;;;;;23.17;14.75;;;14.70;66.10;;;;;;5069600;28;20032;-75
2022/03/29 10:29:11;;;;;;;21.80;14.05;;;14.60;66.00;;;;;;5087091;28;20020;-79
2022/03/29 10:31:40;;;;;;;19.90;15.02;;;14.70;66.10;;;;;;5067105;28;20028;-77
2022/03/29 10:34:21;;;;;;;19.55;13.50;;;14.70;66.00;;;;;;5066946;28;20031;-74
2022/03/29 10:37:10;;;;;;;20.45;14.63;;;14.70;66.00;;;;;;5066745;28;20039;-76
2022/03/29 10:39:39;;;;;;;20.48;14.35;;;14.80;65.90;;;;;;5066957;28;20020;-75
2022/03/29 10:42:28;;;;;;;19.02;14.20;;;14.80;65.90;;;;;;5067060;28;20024;-75
2022/03/29 10:45:19;;;;;;;19.48;14.50;;;14.90;65.80;;;;;;5069112;28;20124;-78
2022/03/29 10:48:05;;;;;;;19.15;14.13;;;14.90;65.70;;;;;;5070184;28;20053;-79
2022/03/29 10:50:46;;;;;;;18.80;13.60;;;15.00;65.70;;;;;;5070587;28;20042;-75
2022/03/29 10:53:33;;;;;;;19.15;13.80;;;15.00;65.70;;;;;;5070653;28;20059;-80
2022/03/29 10:56:11;;;;;;;32.22;15.05;;;15.00;65.70;;;;;;5070932;28;20035;-76
2022/03/29 10:58:56;;;;;;;42.78;16.08;;;15.00;65.60;;;;;;5069875;28;20031;-75
2022/03/29 11:01:22;;;;;;;32.35;16.15;;;15.00;65.90;;;;;;5090949;28;20028;-79
2022/03/29 11:04:01;;;;;;;35.08;16.23;;;15.00;65.90;;;;;;5073158;28;20077;-77
2022/03/29 11:06:27;;;;;;;33.75;15.45;;;15.00;65.80;;;;;;5072796;28;20027;-76
2022/03/29 11:09:03;;;;;;;29.85;15.07;;;15.10;65.90;;;;;;5073027;28;20024;-76
2022/03/29 11:11:51;;;;;;;33.35;16.25;;;15.10;65.90;;;;;;5091103;28;20731;-76
2022/03/29 11:14:34;;;;;;;31.77;15.70;;;15.10;65.90;;;;;;5091220;28;20022;-77
2022/03/29 11:17:09;;;;;;;33.92;15.23;;;15.10;66.00;;;;;;5072913;28;20110;-77
2022/03/29 11:19:48;;;;;;;27.58;14.45;;;15.10;66.00;;;;;;5091117;28;20031;-75
2022/03/29 11:22:25;;;;;;;26.90;14.40;;;15.10;66.00;;;;;;5091132;28;20485;-76
2022/03/29 11:24:55;;;;;;;35.67;15.52;;;15.10;66.00;;;;;;5090721;28;20048;-75
2022/03/29 11:27:23;;;;;;;27.27;14.50;;;15.10;66.10;;;;;;5072199;28;20115;-75
2022/03/29 11:29:50;;;;;;;26.17;14.93;;;15.10;66.20;;;;;;5090573;28;20028;-78
2022/03/29 11:32:16;;;;;;;27.15;15.10;;;15.10;66.20;;;;;;5090691;28;20019;-75
2022/03/29 11:34:43;;;;;;;27.13;15.35;;;15.10;66.20;;;;;;5072717;28;20035;-75
2022/03/29 11:37:26;;;;;;;25.60;14.20;;;15.20;66.30;;;;;;5090379;28;20020;-75
2022/03/29 11:39:51;;;;;;;33.30;15.18;;;15.20;66.20;;;;;;5072348;28;20356;-78
2022/03/29 11:42:17;;;;;;;26.27;14.32;;;15.20;66.20;;;;;;5072566;28;20012;-75
2022/03/29 11:44:47;;;;;;;25.13;13.77;;;15.20;66.20;;;;;;5072392;28;20028;-78
2022/03/29 11:47:13;;;;;;;22.10;13.30;;;15.20;66.20;;;;;;5072026;28;20082;-76
2022/03/29 11:49:41;;;;;;;22.85;13.80;;;15.20;66.20;;;;;;5090344;28;20019;-76
2022/03/29 11:52:08;;;;;;;25.88;13.93;;;15.20;66.30;;;;;;5072386;28;20032;-75
2022/03/29 11:54:41;;;;;;;22.90;14.15;;;15.20;66.30;;;;;;5072200;28;20020;-75
2022/03/29 11:57:20;;;;;;;23.85;13.15;;;15.20;66.30;;;;;;5089991;28;20066;-75
2022/03/29 11:59:46;;;;;;;27.38;13.93;;;15.20;66.30;;;;;;5072660;28;20020;-76
2022/03/29 12:02:12;;;;;;;28.30;13.45;;;15.20;66.30;;;;;;5090335;28;20596;-77
2022/03/29 12:04:38;;;;;;;24.80;13.38;;;15.20;66.30;;;;;;5072136;28;20016;-79
2022/03/29 12:07:04;;;;;;;19.90;13.48;;;15.30;66.40;;;;;;5071254;28;20031;-74
2022/03/29 12:09:31;;;;;;;21.85;12.70;;;15.30;66.30;;;;;;5089791;28;20028;-76
2022/03/29 12:11:59;;;;;;;24.92;13.77;;;15.30;66.30;;;;;;5090087;28;20414;-76
2022/03/29 12:14:25;;;;;;;22.20;13.75;;;15.30;66.30;;;;;;5089950;28;20023;-78
2022/03/29 12:16:55;;;;;;;23.33;12.88;;;15.30;66.30;;;;;;5071356;28;20028;-76
2022/03/29 12:19:23;;;;;;;22.83;13.40;;;15.30;66.30;;;;;;5088944;28;20035;-76
2022/03/29 12:21:51;;;;;;;23.40;13.52;;;15.30;66.30;;;;;;5072161;28;20030;-76
2022/03/29 12:24:17;;;;;;;20.35;12.50;;;15.40;66.30;;;;;;5071378;28;20024;-77
2022/03/29 12:26:57;;;;;;;21.38;12.68;;;15.30;66.20;;;;;;5071370;28;20189;-76
2022/03/29 12:29:25;;;;;;;20.00;12.90;;;15.40;66.40;;;;;;5089303;28;20020;-80
2022/03/29 12:31:51;;;;;;;26.88;13.43;;;15.40;66.40;;;;;;5069966;28;20039;-78
2022/03/29 12:34:23;;;;;;;20.00;13.13;;;15.40;66.40;;;;;;5071306;28;20355;-76
2022/03/29 12:36:52;;;;;;;20.50;13.52;;;15.40;66.40;;;;;;5089385;28;20027;-77
2022/03/29 12:39:18;;;;;;;22.85;12.80;;;15.40;66.40;;;;;;5071563;28;20020;-77
2022/03/29 12:41:54;;;;;;;17.85;11.77;;;15.40;66.40;;;;;;5089464;28;20026;-77